sensor_id;sensor_type;location;lat;lon;timestamp;P1;durP1;ratioP1;P2;durP2;ratioP2
58966;SDS011;44744;51.894;5.080;2022-08-19T00:00:38;7.00;;;6.20;;
58966;SDS011;44744;51.894;5.080;2022-08-19T00:01:39;7.90;;;7.20;;
58966;SDS011;44744;51.894;5.080;2022-08-19T00:03:41;9.40;;;8.10;;
58966;SDS011;44744;51.894;5.080;2022-08-19T00:04:41;9.20;;;8.20;;
58966;SDS011;44744;51.894;5.080;2022-08-19T00:05:42;8.20;;;7.50;;
58966;SDS011;44744;51.894;5.080;2022-08-19T00:06:43;9.50;;;8.50;;
58966;SDS011;44744;51.894;5.080;2022-08-19T00:07:45;9.60;;;8.50;;
58966;SDS011;44744;51.894;5.080;2022-08-19T00:08:46;10.60;;;9.20;;
58966;SDS011;44744;51.894;5.080;2022-08-19T00:09:46;8.50;;;7.70;;
58966;SDS011;44744;51.894;5.080;2022-08-19T00:10:47;9.60;;;8.30;;
58966;SDS011;44744;51.894;5.080;2022-08-19T00:11:47;10.80;;;9.80;;
58966;SDS011;44744;51.894;5.080;2022-08-19T00:12:47;10.80;;;9.60;;
58966;SDS011;44744;51.894;5.080;2022-08-19T00:13:48;11.80;;;9.10;;
58966;SDS011;44744;51.894;5.080;2022-08-19T00:14:48;10.30;;;9.30;;
58966;SDS011;44744;51.894;5.080;2022-08-19T00:15:48;10.50;;;9.40;;
58966;SDS011;44744;51.894;5.080;2022-08-19T00:16:49;9.70;;;8.70;;
58966;SDS011;44744;51.894;5.080;2022-08-19T00:17:49;10.20;;;8.80;;
58966;SDS011;44744;51.894;5.080;2022-08-19T00:18:50;11.70;;;8.70;;
58966;SDS011;44744;51.894;5.080;2022-08-19T00:19:50;8.30;;;7.60;;
58966;SDS011;44744;51.894;5.080;2022-08-19T00:20:50;8.10;;;7.20;;
58966;SDS011;44744;51.894;5.080;2022-08-19T00:21:51;8.40;;;7.60;;
58966;SDS011;44744;51.894;5.080;2022-08-19T00:22:52;8.40;;;7.40;;
58966;SDS011;44744;51.894;5.080;2022-08-19T00:23:53;8.20;;;7.30;;
58966;SDS011;44744;51.894;5.080;2022-08-19T00:24:57;7.50;;;6.80;;
58966;SDS011;44744;51.894;5.080;2022-08-19T00:25:57;6.70;;;6.10;;
58966;SDS011;44744;51.894;5.080;2022-08-19T00:26:58;6.40;;;5.80;;
58966;SDS011;44744;51.894;5.080;2022-08-19T00:27:58;10.00;;;6.40;;
58966;SDS011;44744;51.894;5.080;2022-08-19T00:28:58;7.40;;;6.50;;
58966;SDS011;44744;51.894;5.080;2022-08-19T00:29:59;8.10;;;7.30;;
58966;SDS011;44744;51.894;5.080;2022-08-19T00:31:00;7.70;;;6.90;;
58966;SDS011;44744;51.894;5.080;2022-08-19T00:32:00;8.60;;;6.90;;
58966;SDS011;44744;51.894;5.080;2022-08-19T00:33:00;7.50;;;6.60;;
58966;SDS011;44744;51.894;5.080;2022-08-19T00:34:01;10.50;;;7.00;;
58966;SDS011;44744;51.894;5.080;2022-08-19T00:35:01;7.40;;;6.50;;
58966;SDS011;44744;51.894;5.080;2022-08-19T00:36:05;7.60;;;6.90;;
58966;SDS011;44744;51.894;5.080;2022-08-19T00:37:07;8.20;;;7.00;;
58966;SDS011;44744;51.894;5.080;2022-08-19T00:38:07;8.10;;;7.30;;
58966;SDS011;44744;51.894;5.080;2022-08-19T00:39:08;9.20;;;8.30;;
58966;SDS011;44744;51.894;5.080;2022-08-19T00:40:09;9.50;;;8.50;;
58966;SDS011;44744;51.894;5.080;2022-08-19T00:41:15;15.10;;;8.50;;
58966;SDS011;44744;51.894;5.080;2022-08-19T00:42:18;8.40;;;7.30;;
58966;SDS011;44744;51.894;5.080;2022-08-19T00:43:21;9.10;;;7.40;;
58966;SDS011;44744;51.894;5.080;2022-08-19T00:44:23;7.80;;;6.80;;
58966;SDS011;44744;51.894;5.080;2022-08-19T00:45:28;7.50;;;6.80;;
58966;SDS011;44744;51.894;5.080;2022-08-19T00:46:29;8.50;;;6.60;;
58966;SDS011;44744;51.894;5.080;2022-08-19T00:47:30;7.10;;;6.40;;
58966;SDS011;44744;51.894;5.080;2022-08-19T00:48:30;7.40;;;6.70;;
58966;SDS011;44744;51.894;5.080;2022-08-19T00:50:40;7.40;;;6.70;;
58966;SDS011;44744;51.894;5.080;2022-08-19T00:52:45;8.40;;;7.60;;
58966;SDS011;44744;51.894;5.080;2022-08-19T00:53:48;7.30;;;6.60;;
58966;SDS011;44744;51.894;5.080;2022-08-19T00:54:49;5.90;;;5.30;;
58966;SDS011;44744;51.894;5.080;2022-08-19T00:55:52;9.60;;;8.00;;
58966;SDS011;44744;51.894;5.080;2022-08-19T00:56:54;8.30;;;7.40;;
58966;SDS011;44744;51.894;5.080;2022-08-19T00:57:56;8.20;;;6.90;;
58966;SDS011;44744;51.894;5.080;2022-08-19T00:59:00;8.50;;;7.10;;
58966;SDS011;44744;51.894;5.080;2022-08-19T01:00:04;8.10;;;7.30;;
58966;SDS011;44744;51.894;5.080;2022-08-19T01:01:07;9.00;;;8.00;;
58966;SDS011;44744;51.894;5.080;2022-08-19T01:02:08;12.00;;;8.40;;
58966;SDS011;44744;51.894;5.080;2022-08-19T01:03:10;9.50;;;8.50;;
58966;SDS011;44744;51.894;5.080;2022-08-19T01:04:13;8.80;;;7.30;;
58966;SDS011;44744;51.894;5.080;2022-08-19T01:05:16;11.90;;;8.60;;
58966;SDS011;44744;51.894;5.080;2022-08-19T01:06:19;11.20;;;10.00;;
58966;SDS011;44744;51.894;5.080;2022-08-19T01:07:20;14.10;;;12.10;;
58966;SDS011;44744;51.894;5.080;2022-08-19T01:08:21;13.50;;;12.10;;
58966;SDS011;44744;51.894;5.080;2022-08-19T01:09:22;14.70;;;12.70;;
58966;SDS011;44744;51.894;5.080;2022-08-19T01:10:26;15.50;;;13.20;;
58966;SDS011;44744;51.894;5.080;2022-08-19T01:11:30;14.60;;;13.10;;
58966;SDS011;44744;51.894;5.080;2022-08-19T01:12:34;15.90;;;14.20;;
58966;SDS011;44744;51.894;5.080;2022-08-19T01:13:34;16.30;;;14.60;;
58966;SDS011;44744;51.894;5.080;2022-08-19T01:14:36;14.30;;;12.80;;
58966;SDS011;44744;51.894;5.080;2022-08-19T01:15:40;14.60;;;12.90;;
58966;SDS011;44744;51.894;5.080;2022-08-19T01:16:46;16.80;;;15.00;;
58966;SDS011;44744;51.894;5.080;2022-08-19T01:17:47;17.70;;;15.70;;
58966;SDS011;44744;51.894;5.080;2022-08-19T01:19:49;16.60;;;14.90;;
58966;SDS011;44744;51.894;5.080;2022-08-19T01:20:50;17.20;;;15.40;;
58966;SDS011;44744;51.894;5.080;2022-08-19T01:21:53;21.40;;;15.80;;
58966;SDS011;44744;51.894;5.080;2022-08-19T01:23:00;16.50;;;14.70;;
58966;SDS011;44744;51.894;5.080;2022-08-19T01:24:02;17.90;;;15.80;;
58966;SDS011;44744;51.894;5.080;2022-08-19T01:25:02;16.80;;;15.00;;
58966;SDS011;44744;51.894;5.080;2022-08-19T01:26:04;19.90;;;16.00;;
58966;SDS011;44744;51.894;5.080;2022-08-19T01:27:04;18.00;;;15.40;;
58966;SDS011;44744;51.894;5.080;2022-08-19T01:29:06;17.10;;;15.00;;
58966;SDS011;44744;51.894;5.080;2022-08-19T01:30:07;17.90;;;15.60;;
58966;SDS011;44744;51.894;5.080;2022-08-19T01:32:15;17.70;;;15.80;;
58966;SDS011;44744;51.894;5.080;2022-08-19T01:33:19;17.00;;;15.20;;
58966;SDS011;44744;51.894;5.080;2022-08-19T01:34:19;17.40;;;15.30;;
58966;SDS011;44744;51.894;5.080;2022-08-19T01:35:20;18.00;;;16.10;;
58966;SDS011;44744;51.894;5.080;2022-08-19T01:37:25;17.50;;;15.50;;
58966;SDS011;44744;51.894;5.080;2022-08-19T01:38:26;17.40;;;15.50;;
58966;SDS011;44744;51.894;5.080;2022-08-19T01:39:27;20.20;;;16.70;;
58966;SDS011;44744;51.894;5.080;2022-08-19T01:40:29;18.10;;;16.30;;
58966;SDS011;44744;51.894;5.080;2022-08-19T01:41:31;18.00;;;16.10;;
58966;SDS011;44744;51.894;5.080;2022-08-19T01:42:32;19.00;;;17.00;;
58966;SDS011;44744;51.894;5.080;2022-08-19T01:43:33;17.90;;;16.10;;
58966;SDS011;44744;51.894;5.080;2022-08-19T01:44:34;18.70;;;16.70;;
58966;SDS011;44744;51.894;5.080;2022-08-19T01:45:35;18.80;;;16.90;;
58966;SDS011;44744;51.894;5.080;2022-08-19T01:46:35;22.00;;;15.30;;
58966;SDS011;44744;51.894;5.080;2022-08-19T01:47:36;18.60;;;14.80;;
58966;SDS011;44744;51.894;5.080;2022-08-19T01:48:39;16.40;;;13.90;;
58966;SDS011;44744;51.894;5.080;2022-08-19T01:49:41;16.80;;;14.40;;
58966;SDS011;44744;51.894;5.080;2022-08-19T01:50:42;16.20;;;14.60;;
58966;SDS011;44744;51.894;5.080;2022-08-19T01:51:42;16.50;;;14.50;;
58966;SDS011;44744;51.894;5.080;2022-08-19T01:52:43;14.70;;;12.90;;
58966;SDS011;44744;51.894;5.080;2022-08-19T01:53:47;13.00;;;11.10;;
58966;SDS011;44744;51.894;5.080;2022-08-19T01:54:49;12.20;;;10.90;;
58966;SDS011;44744;51.894;5.080;2022-08-19T01:55:49;13.90;;;11.70;;
58966;SDS011;44744;51.894;5.080;2022-08-19T01:56:50;13.60;;;12.10;;
58966;SDS011;44744;51.894;5.080;2022-08-19T01:57:53;15.50;;;13.90;;
58966;SDS011;44744;51.894;5.080;2022-08-19T01:58:58;15.70;;;14.00;;
58966;SDS011;44744;51.894;5.080;2022-08-19T02:00:03;15.40;;;13.80;;
58966;SDS011;44744;51.894;5.080;2022-08-19T02:01:06;15.10;;;13.60;;
58966;SDS011;44744;51.894;5.080;2022-08-19T02:02:07;16.30;;;14.60;;
58966;SDS011;44744;51.894;5.080;2022-08-19T02:03:07;15.80;;;14.20;;
58966;SDS011;44744;51.894;5.080;2022-08-19T02:04:07;16.40;;;14.60;;
58966;SDS011;44744;51.894;5.080;2022-08-19T02:05:09;18.50;;;15.00;;
58966;SDS011;44744;51.894;5.080;2022-08-19T02:07:10;15.50;;;13.90;;
58966;SDS011;44744;51.894;5.080;2022-08-19T02:08:11;18.50;;;16.20;;
58966;SDS011;44744;51.894;5.080;2022-08-19T02:09:12;17.20;;;15.30;;
58966;SDS011;44744;51.894;5.080;2022-08-19T02:10:14;16.90;;;15.00;;
58966;SDS011;44744;51.894;5.080;2022-08-19T02:11:19;16.90;;;15.10;;
58966;SDS011;44744;51.894;5.080;2022-08-19T02:12:28;13.30;;;11.90;;
58966;SDS011;44744;51.894;5.080;2022-08-19T02:13:28;15.90;;;13.60;;
58966;SDS011;44744;51.894;5.080;2022-08-19T02:14:28;14.90;;;13.30;;
58966;SDS011;44744;51.894;5.080;2022-08-19T02:15:29;16.30;;;13.40;;
58966;SDS011;44744;51.894;5.080;2022-08-19T02:16:29;12.40;;;11.00;;
58966;SDS011;44744;51.894;5.080;2022-08-19T02:17:30;11.10;;;9.60;;
58966;SDS011;44744;51.894;5.080;2022-08-19T02:18:30;9.80;;;8.40;;
58966;SDS011;44744;51.894;5.080;2022-08-19T02:19:31;8.00;;;7.00;;
58966;SDS011;44744;51.894;5.080;2022-08-19T02:20:31;8.50;;;7.60;;
58966;SDS011;44744;51.894;5.080;2022-08-19T02:21:32;8.20;;;7.40;;
58966;SDS011;44744;51.894;5.080;2022-08-19T02:22:33;6.90;;;6.20;;
58966;SDS011;44744;51.894;5.080;2022-08-19T02:23:33;8.20;;;6.70;;
58966;SDS011;44744;51.894;5.080;2022-08-19T02:24:33;7.20;;;6.50;;
58966;SDS011;44744;51.894;5.080;2022-08-19T02:25:34;8.10;;;6.50;;
58966;SDS011;44744;51.894;5.080;2022-08-19T02:26:34;7.10;;;6.40;;
58966;SDS011;44744;51.894;5.080;2022-08-19T02:27:34;8.50;;;6.70;;
58966;SDS011;44744;51.894;5.080;2022-08-19T02:28:35;9.10;;;7.40;;
58966;SDS011;44744;51.894;5.080;2022-08-19T02:29:35;7.90;;;6.50;;
58966;SDS011;44744;51.894;5.080;2022-08-19T02:30:36;8.90;;;6.80;;
58966;SDS011;44744;51.894;5.080;2022-08-19T02:31:36;8.20;;;6.50;;
58966;SDS011;44744;51.894;5.080;2022-08-19T02:32:36;7.30;;;6.40;;
58966;SDS011;44744;51.894;5.080;2022-08-19T02:33:37;8.90;;;7.10;;
58966;SDS011;44744;51.894;5.080;2022-08-19T02:34:37;8.90;;;7.90;;
58966;SDS011;44744;51.894;5.080;2022-08-19T02:35:40;8.40;;;7.50;;
58966;SDS011;44744;51.894;5.080;2022-08-19T02:36:41;9.70;;;8.40;;
58966;SDS011;44744;51.894;5.080;2022-08-19T02:37:42;10.20;;;9.10;;
58966;SDS011;44744;51.894;5.080;2022-08-19T02:38:43;11.00;;;9.90;;
58966;SDS011;44744;51.894;5.080;2022-08-19T02:39:44;11.20;;;9.60;;
58966;SDS011;44744;51.894;5.080;2022-08-19T02:40:49;12.50;;;8.80;;
58966;SDS011;44744;51.894;5.080;2022-08-19T02:41:50;10.90;;;8.90;;
58966;SDS011;44744;51.894;5.080;2022-08-19T02:42:51;12.40;;;10.00;;
58966;SDS011;44744;51.894;5.080;2022-08-19T02:43:51;10.50;;;9.40;;
58966;SDS011;44744;51.894;5.080;2022-08-19T02:44:51;11.10;;;9.80;;
58966;SDS011;44744;51.894;5.080;2022-08-19T02:45:52;11.40;;;10.20;;
58966;SDS011;44744;51.894;5.080;2022-08-19T02:46:53;13.00;;;10.30;;
58966;SDS011;44744;51.894;5.080;2022-08-19T02:47:53;11.90;;;10.70;;
58966;SDS011;44744;51.894;5.080;2022-08-19T02:48:55;13.40;;;11.70;;
58966;SDS011;44744;51.894;5.080;2022-08-19T02:49:57;13.50;;;12.00;;
58966;SDS011;44744;51.894;5.080;2022-08-19T02:50:58;13.30;;;11.90;;
58966;SDS011;44744;51.894;5.080;2022-08-19T02:51:58;13.70;;;11.80;;
58966;SDS011;44744;51.894;5.080;2022-08-19T02:52:58;17.80;;;14.00;;
58966;SDS011;44744;51.894;5.080;2022-08-19T02:53:59;13.90;;;12.00;;
58966;SDS011;44744;51.894;5.080;2022-08-19T02:54:59;13.20;;;12.00;;
58966;SDS011;44744;51.894;5.080;2022-08-19T02:56:00;15.10;;;12.90;;
58966;SDS011;44744;51.894;5.080;2022-08-19T02:57:00;15.70;;;13.60;;
58966;SDS011;44744;51.894;5.080;2022-08-19T02:58:00;14.20;;;12.60;;
58966;SDS011;44744;51.894;5.080;2022-08-19T02:59:01;15.40;;;12.80;;
58966;SDS011;44744;51.894;5.080;2022-08-19T03:01:06;14.30;;;12.80;;
58966;SDS011;44744;51.894;5.080;2022-08-19T03:02:07;17.30;;;13.40;;
58966;SDS011;44744;51.894;5.080;2022-08-19T03:03:07;14.70;;;13.00;;
58966;SDS011;44744;51.894;5.080;2022-08-19T03:04:08;15.70;;;13.40;;
58966;SDS011;44744;51.894;5.080;2022-08-19T03:05:11;16.60;;;14.70;;
58966;SDS011;44744;51.894;5.080;2022-08-19T03:06:12;17.00;;;15.10;;
58966;SDS011;44744;51.894;5.080;2022-08-19T03:07:15;18.80;;;13.60;;
58966;SDS011;44744;51.894;5.080;2022-08-19T03:08:15;17.20;;;14.10;;
58966;SDS011;44744;51.894;5.080;2022-08-19T03:09:19;16.80;;;15.10;;
58966;SDS011;44744;51.894;5.080;2022-08-19T03:10:20;16.40;;;14.30;;
58966;SDS011;44744;51.894;5.080;2022-08-19T03:11:22;17.70;;;14.40;;
58966;SDS011;44744;51.894;5.080;2022-08-19T03:12:24;17.40;;;15.60;;
58966;SDS011;44744;51.894;5.080;2022-08-19T03:13:25;20.80;;;16.80;;
58966;SDS011;44744;51.894;5.080;2022-08-19T03:14:25;19.80;;;16.10;;
58966;SDS011;44744;51.894;5.080;2022-08-19T03:15:25;16.30;;;14.30;;
58966;SDS011;44744;51.894;5.080;2022-08-19T03:16:27;16.90;;;15.10;;
58966;SDS011;44744;51.894;5.080;2022-08-19T03:17:30;17.30;;;14.60;;
58966;SDS011;44744;51.894;5.080;2022-08-19T03:18:30;16.60;;;14.10;;
58966;SDS011;44744;51.894;5.080;2022-08-19T03:19:30;16.80;;;14.30;;
58966;SDS011;44744;51.894;5.080;2022-08-19T03:20:31;17.10;;;14.90;;
58966;SDS011;44744;51.894;5.080;2022-08-19T03:21:32;17.00;;;15.00;;
58966;SDS011;44744;51.894;5.080;2022-08-19T03:23:33;15.10;;;13.60;;
58966;SDS011;44744;51.894;5.080;2022-08-19T03:24:34;16.60;;;14.80;;
58966;SDS011;44744;51.894;5.080;2022-08-19T03:25:41;18.70;;;14.80;;
58966;SDS011;44744;51.894;5.080;2022-08-19T03:26:45;16.30;;;14.60;;
58966;SDS011;44744;51.894;5.080;2022-08-19T03:27:48;18.50;;;14.80;;
58966;SDS011;44744;51.894;5.080;2022-08-19T03:28:48;17.50;;;15.30;;
58966;SDS011;44744;51.894;5.080;2022-08-19T03:29:48;18.30;;;16.20;;
58966;SDS011;44744;51.894;5.080;2022-08-19T03:30:59;17.80;;;15.80;;
58966;SDS011;44744;51.894;5.080;2022-08-19T03:32:20;17.20;;;15.10;;
58966;SDS011;44744;51.894;5.080;2022-08-19T03:33:20;17.20;;;14.80;;
58966;SDS011;44744;51.894;5.080;2022-08-19T03:34:22;16.90;;;15.10;;
58966;SDS011;44744;51.894;5.080;2022-08-19T03:35:24;18.40;;;15.00;;
58966;SDS011;44744;51.894;5.080;2022-08-19T03:36:25;17.80;;;14.80;;
58966;SDS011;44744;51.894;5.080;2022-08-19T03:37:27;19.50;;;15.90;;
58966;SDS011;44744;51.894;5.080;2022-08-19T03:38:27;18.50;;;15.70;;
58966;SDS011;44744;51.894;5.080;2022-08-19T03:39:28;18.00;;;15.40;;
58966;SDS011;44744;51.894;5.080;2022-08-19T03:40:28;20.20;;;16.60;;
58966;SDS011;44744;51.894;5.080;2022-08-19T03:41:31;17.90;;;15.90;;
58966;SDS011;44744;51.894;5.080;2022-08-19T03:42:36;19.20;;;16.40;;
58966;SDS011;44744;51.894;5.080;2022-08-19T03:43:37;17.60;;;14.20;;
58966;SDS011;44744;51.894;5.080;2022-08-19T03:44:38;17.00;;;15.00;;
58966;SDS011;44744;51.894;5.080;2022-08-19T03:45:39;18.00;;;14.80;;
58966;SDS011;44744;51.894;5.080;2022-08-19T03:46:39;20.10;;;15.20;;
58966;SDS011;44744;51.894;5.080;2022-08-19T03:47:39;17.90;;;15.80;;
58966;SDS011;44744;51.894;5.080;2022-08-19T03:48:40;19.50;;;16.00;;
58966;SDS011;44744;51.894;5.080;2022-08-19T03:49:42;20.80;;;17.10;;
58966;SDS011;44744;51.894;5.080;2022-08-19T03:50:43;18.50;;;15.40;;
58966;SDS011;44744;51.894;5.080;2022-08-19T03:51:44;21.40;;;17.00;;
58966;SDS011;44744;51.894;5.080;2022-08-19T03:52:49;19.40;;;16.30;;
58966;SDS011;44744;51.894;5.080;2022-08-19T03:53:51;18.90;;;15.90;;
58966;SDS011;44744;51.894;5.080;2022-08-19T03:54:52;22.40;;;18.30;;
58966;SDS011;44744;51.894;5.080;2022-08-19T03:55:53;21.80;;;18.00;;
58966;SDS011;44744;51.894;5.080;2022-08-19T03:56:55;25.10;;;18.90;;
58966;SDS011;44744;51.894;5.080;2022-08-19T03:57:56;22.60;;;19.50;;
58966;SDS011;44744;51.894;5.080;2022-08-19T03:58:57;23.30;;;18.50;;
58966;SDS011;44744;51.894;5.080;2022-08-19T03:59:58;26.90;;;20.20;;
58966;SDS011;44744;51.894;5.080;2022-08-19T04:00:58;25.70;;;19.50;;
58966;SDS011;44744;51.894;5.080;2022-08-19T04:02:00;22.90;;;19.30;;
58966;SDS011;44744;51.894;5.080;2022-08-19T04:03:03;25.20;;;19.10;;
58966;SDS011;44744;51.894;5.080;2022-08-19T04:04:05;22.30;;;18.40;;
58966;SDS011;44744;51.894;5.080;2022-08-19T04:06:12;23.10;;;19.10;;
58966;SDS011;44744;51.894;5.080;2022-08-19T04:07:18;26.20;;;20.00;;
58966;SDS011;44744;51.894;5.080;2022-08-19T04:08:18;25.20;;;20.40;;
58966;SDS011;44744;51.894;5.080;2022-08-19T04:09:19;23.50;;;19.80;;
58966;SDS011;44744;51.894;5.080;2022-08-19T04:10:20;25.80;;;20.20;;
58966;SDS011;44744;51.894;5.080;2022-08-19T04:11:21;26.50;;;21.40;;
58966;SDS011;44744;51.894;5.080;2022-08-19T04:12:24;23.30;;;19.40;;
58966;SDS011;44744;51.894;5.080;2022-08-19T04:13:24;22.00;;;19.60;;
58966;SDS011;44744;51.894;5.080;2022-08-19T04:14:26;25.10;;;20.60;;
58966;SDS011;44744;51.894;5.080;2022-08-19T04:15:29;26.80;;;20.70;;
58966;SDS011;44744;51.894;5.080;2022-08-19T04:16:29;29.40;;;21.40;;
58966;SDS011;44744;51.894;5.080;2022-08-19T04:17:29;26.00;;;21.00;;
58966;SDS011;44744;51.894;5.080;2022-08-19T04:18:30;28.40;;;20.10;;
58966;SDS011;44744;51.894;5.080;2022-08-19T04:19:31;30.90;;;22.40;;
58966;SDS011;44744;51.894;5.080;2022-08-19T04:20:43;27.40;;;21.10;;
58966;SDS011;44744;51.894;5.080;2022-08-19T04:21:47;24.30;;;21.00;;
58966;SDS011;44744;51.894;5.080;2022-08-19T04:22:49;27.70;;;21.10;;
58966;SDS011;44744;51.894;5.080;2022-08-19T04:23:50;25.30;;;21.80;;
58966;SDS011;44744;51.894;5.080;2022-08-19T04:24:50;33.10;;;22.60;;
58966;SDS011;44744;51.894;5.080;2022-08-19T04:25:51;28.10;;;22.50;;
58966;SDS011;44744;51.894;5.080;2022-08-19T04:26:51;27.50;;;21.50;;
58966;SDS011;44744;51.894;5.080;2022-08-19T04:27:52;31.80;;;23.00;;
58966;SDS011;44744;51.894;5.080;2022-08-19T04:28:52;28.80;;;22.00;;
58966;SDS011;44744;51.894;5.080;2022-08-19T04:29:54;29.80;;;23.10;;
58966;SDS011;44744;51.894;5.080;2022-08-19T04:30:54;30.30;;;23.00;;
58966;SDS011;44744;51.894;5.080;2022-08-19T04:31:55;29.30;;;23.50;;
58966;SDS011;44744;51.894;5.080;2022-08-19T04:32:57;32.30;;;24.70;;
58966;SDS011;44744;51.894;5.080;2022-08-19T04:33:58;32.00;;;25.90;;
58966;SDS011;44744;51.894;5.080;2022-08-19T04:34:59;35.60;;;26.20;;
58966;SDS011;44744;51.894;5.080;2022-08-19T04:35:59;36.90;;;26.70;;
58966;SDS011;44744;51.894;5.080;2022-08-19T04:37:00;33.50;;;25.20;;
58966;SDS011;44744;51.894;5.080;2022-08-19T04:38:00;32.20;;;25.10;;
58966;SDS011;44744;51.894;5.080;2022-08-19T04:39:02;33.00;;;26.40;;
58966;SDS011;44744;51.894;5.080;2022-08-19T04:40:05;32.00;;;24.80;;
58966;SDS011;44744;51.894;5.080;2022-08-19T04:41:12;35.30;;;25.80;;
58966;SDS011;44744;51.894;5.080;2022-08-19T04:42:16;31.00;;;26.00;;
58966;SDS011;44744;51.894;5.080;2022-08-19T04:43:20;33.50;;;25.00;;
58966;SDS011;44744;51.894;5.080;2022-08-19T04:44:20;31.70;;;25.80;;
58966;SDS011;44744;51.894;5.080;2022-08-19T04:45:21;43.20;;;27.60;;
58966;SDS011;44744;51.894;5.080;2022-08-19T04:46:22;33.60;;;27.20;;
58966;SDS011;44744;51.894;5.080;2022-08-19T04:47:22;32.60;;;26.00;;
58966;SDS011;44744;51.894;5.080;2022-08-19T04:48:23;42.40;;;28.30;;
58966;SDS011;44744;51.894;5.080;2022-08-19T04:49:24;40.50;;;28.20;;
58966;SDS011;44744;51.894;5.080;2022-08-19T04:50:25;38.00;;;27.20;;
58966;SDS011;44744;51.894;5.080;2022-08-19T04:51:26;36.90;;;27.20;;
58966;SDS011;44744;51.894;5.080;2022-08-19T04:52:27;42.70;;;30.60;;
58966;SDS011;44744;51.894;5.080;2022-08-19T04:53:28;39.60;;;28.60;;
58966;SDS011;44744;51.894;5.080;2022-08-19T04:54:29;39.80;;;30.30;;
58966;SDS011;44744;51.894;5.080;2022-08-19T04:55:29;40.50;;;29.90;;
58966;SDS011;44744;51.894;5.080;2022-08-19T04:56:30;39.70;;;30.60;;
58966;SDS011;44744;51.894;5.080;2022-08-19T04:57:30;40.80;;;29.80;;
58966;SDS011;44744;51.894;5.080;2022-08-19T04:58:30;41.70;;;31.20;;
58966;SDS011;44744;51.894;5.080;2022-08-19T04:59:31;45.30;;;32.80;;
58966;SDS011;44744;51.894;5.080;2022-08-19T05:00:31;45.60;;;32.70;;
58966;SDS011;44744;51.894;5.080;2022-08-19T05:01:32;44.00;;;31.10;;
58966;SDS011;44744;51.894;5.080;2022-08-19T05:02:33;49.60;;;33.20;;
58966;SDS011;44744;51.894;5.080;2022-08-19T05:03:33;45.70;;;33.90;;
58966;SDS011;44744;51.894;5.080;2022-08-19T05:04:34;48.20;;;33.50;;
58966;SDS011;44744;51.894;5.080;2022-08-19T05:05:38;47.40;;;33.10;;
58966;SDS011;44744;51.894;5.080;2022-08-19T05:06:39;42.70;;;32.90;;
58966;SDS011;44744;51.894;5.080;2022-08-19T05:07:39;42.50;;;32.60;;
58966;SDS011;44744;51.894;5.080;2022-08-19T05:08:40;43.10;;;32.20;;
58966;SDS011;44744;51.894;5.080;2022-08-19T05:09:41;44.80;;;34.20;;
58966;SDS011;44744;51.894;5.080;2022-08-19T05:10:41;45.70;;;32.90;;
58966;SDS011;44744;51.894;5.080;2022-08-19T05:11:42;49.50;;;34.40;;
58966;SDS011;44744;51.894;5.080;2022-08-19T05:12:43;44.80;;;33.60;;
58966;SDS011;44744;51.894;5.080;2022-08-19T05:13:44;46.10;;;33.90;;
58966;SDS011;44744;51.894;5.080;2022-08-19T05:14:45;44.30;;;33.60;;
58966;SDS011;44744;51.894;5.080;2022-08-19T05:15:53;47.10;;;33.30;;
58966;SDS011;44744;51.894;5.080;2022-08-19T05:16:55;48.20;;;34.20;;
58966;SDS011;44744;51.894;5.080;2022-08-19T05:17:55;48.20;;;33.90;;
58966;SDS011;44744;51.894;5.080;2022-08-19T05:18:56;48.40;;;34.70;;
58966;SDS011;44744;51.894;5.080;2022-08-19T05:19:57;47.90;;;34.20;;
58966;SDS011;44744;51.894;5.080;2022-08-19T05:20:57;46.90;;;34.60;;
58966;SDS011;44744;51.894;5.080;2022-08-19T05:21:59;42.80;;;33.30;;
58966;SDS011;44744;51.894;5.080;2022-08-19T05:24:00;48.70;;;34.10;;
58966;SDS011;44744;51.894;5.080;2022-08-19T05:25:02;50.00;;;35.30;;
58966;SDS011;44744;51.894;5.080;2022-08-19T05:26:04;52.40;;;36.10;;
58966;SDS011;44744;51.894;5.080;2022-08-19T05:27:05;46.50;;;33.40;;
58966;SDS011;44744;51.894;5.080;2022-08-19T05:28:05;52.20;;;36.00;;
58966;SDS011;44744;51.894;5.080;2022-08-19T05:29:06;48.20;;;33.90;;
58966;SDS011;44744;51.894;5.080;2022-08-19T05:30:07;51.10;;;37.50;;
58966;SDS011;44744;51.894;5.080;2022-08-19T05:31:08;50.50;;;36.60;;
58966;SDS011;44744;51.894;5.080;2022-08-19T05:32:09;50.80;;;36.90;;
58966;SDS011;44744;51.894;5.080;2022-08-19T05:33:09;55.00;;;37.30;;
58966;SDS011;44744;51.894;5.080;2022-08-19T05:34:09;54.50;;;37.20;;
58966;SDS011;44744;51.894;5.080;2022-08-19T05:35:10;52.10;;;37.40;;
58966;SDS011;44744;51.894;5.080;2022-08-19T05:36:11;55.10;;;38.50;;
58966;SDS011;44744;51.894;5.080;2022-08-19T05:37:11;56.20;;;37.50;;
58966;SDS011;44744;51.894;5.080;2022-08-19T05:38:12;52.30;;;38.30;;
58966;SDS011;44744;51.894;5.080;2022-08-19T05:39:14;51.40;;;39.10;;
58966;SDS011;44744;51.894;5.080;2022-08-19T05:40:17;56.70;;;37.20;;
58966;SDS011;44744;51.894;5.080;2022-08-19T05:41:18;55.60;;;39.30;;
58966;SDS011;44744;51.894;5.080;2022-08-19T05:42:18;60.60;;;39.30;;
58966;SDS011;44744;51.894;5.080;2022-08-19T05:43:19;59.60;;;38.40;;
58966;SDS011;44744;51.894;5.080;2022-08-19T05:44:19;56.60;;;41.20;;
58966;SDS011;44744;51.894;5.080;2022-08-19T05:45:20;57.00;;;38.50;;
58966;SDS011;44744;51.894;5.080;2022-08-19T05:46:20;60.30;;;41.00;;
58966;SDS011;44744;51.894;5.080;2022-08-19T05:47:20;60.30;;;38.50;;
58966;SDS011;44744;51.894;5.080;2022-08-19T05:48:21;60.70;;;40.10;;
58966;SDS011;44744;51.894;5.080;2022-08-19T05:49:22;61.80;;;39.10;;
58966;SDS011;44744;51.894;5.080;2022-08-19T05:50:22;56.50;;;38.80;;
58966;SDS011;44744;51.894;5.080;2022-08-19T05:51:24;58.50;;;37.60;;
58966;SDS011;44744;51.894;5.080;2022-08-19T05:52:24;61.40;;;38.60;;
58966;SDS011;44744;51.894;5.080;2022-08-19T05:53:25;59.00;;;38.30;;
58966;SDS011;44744;51.894;5.080;2022-08-19T05:54:25;62.60;;;39.20;;
58966;SDS011;44744;51.894;5.080;2022-08-19T05:55:25;60.50;;;38.00;;
58966;SDS011;44744;51.894;5.080;2022-08-19T05:56:26;61.40;;;37.60;;
58966;SDS011;44744;51.894;5.080;2022-08-19T05:57:26;61.30;;;37.80;;
58966;SDS011;44744;51.894;5.080;2022-08-19T05:58:27;57.30;;;37.50;;
58966;SDS011;44744;51.894;5.080;2022-08-19T05:59:27;57.40;;;36.10;;
58966;SDS011;44744;51.894;5.080;2022-08-19T06:00:28;54.90;;;37.10;;
58966;SDS011;44744;51.894;5.080;2022-08-19T06:01:28;56.80;;;34.40;;
58966;SDS011;44744;51.894;5.080;2022-08-19T06:02:29;61.60;;;37.20;;
58966;SDS011;44744;51.894;5.080;2022-08-19T06:03:30;55.70;;;35.10;;
58966;SDS011;44744;51.894;5.080;2022-08-19T06:04:32;57.20;;;36.60;;
58966;SDS011;44744;51.894;5.080;2022-08-19T06:05:33;54.00;;;34.50;;
58966;SDS011;44744;51.894;5.080;2022-08-19T06:06:34;56.50;;;35.20;;
58966;SDS011;44744;51.894;5.080;2022-08-19T06:07:37;52.70;;;35.50;;
58966;SDS011;44744;51.894;5.080;2022-08-19T06:08:39;52.20;;;34.60;;
58966;SDS011;44744;51.894;5.080;2022-08-19T06:09:39;53.10;;;35.30;;
58966;SDS011;44744;51.894;5.080;2022-08-19T06:10:40;53.90;;;36.00;;
58966;SDS011;44744;51.894;5.080;2022-08-19T06:11:42;55.40;;;36.10;;
58966;SDS011;44744;51.894;5.080;2022-08-19T06:12:48;56.90;;;36.20;;
58966;SDS011;44744;51.894;5.080;2022-08-19T06:13:53;51.30;;;34.90;;
58966;SDS011;44744;51.894;5.080;2022-08-19T06:14:54;57.40;;;35.50;;